Frederikshavn, Denmark
Current Conditions -  °F | °C
As of 4:50 AM on Monday 24 Nov 2014 (Local Time) from EKYT Reporting Station
Moderate Rain Moderate Rain  
Wind Chill: 44°   Ceiling: 400
Heat Index: 48°   Visibility: 1.5mi
Dew Point: 46°   Wind: 9mph
Humidity: 93%   Direction: 260°W
Pressure: 29.8"   Gusts: NA
Location:  57.44°N, 10.54°E
Report Text: EKYT 240350Z 26008KT 2500 RA BKN004 OVC008 09/08 Q1009
Loading
Personal Weather Stations






























Interactive Weather Map New forecast layout! Learn more

10-Day Weather Forecast

Advertisements
Track Severe Weather on mobile